sensor_id;sensor_type;location;lat;lon;timestamp;P1;durP1;ratioP1;P2;durP2;ratioP2
6101;SDS011;3081;50.584;7.032;2023-02-28T00:01:20;10.53;;;2.83;;
6101;SDS011;3081;50.584;7.032;2023-02-28T00:03:48;21.80;;;5.70;;
6101;SDS011;3081;50.584;7.032;2023-02-28T00:06:15;9.30;;;3.10;;
6101;SDS011;3081;50.584;7.032;2023-02-28T00:08:42;5.40;;;2.13;;
6101;SDS011;3081;50.584;7.032;2023-02-28T00:11:09;6.77;;;2.40;;
6101;SDS011;3081;50.584;7.032;2023-02-28T00:13:38;5.17;;;2.30;;
6101;SDS011;3081;50.584;7.032;2023-02-28T00:16:08;5.27;;;2.17;;
6101;SDS011;3081;50.584;7.032;2023-02-28T00:18:38;7.10;;;1.67;;
6101;SDS011;3081;50.584;7.032;2023-02-28T00:21:05;7.27;;;2.23;;
6101;SDS011;3081;50.584;7.032;2023-02-28T00:23:33;7.03;;;1.70;;
6101;SDS011;3081;50.584;7.032;2023-02-28T00:26:00;6.27;;;2.10;;
6101;SDS011;3081;50.584;7.032;2023-02-28T00:28:27;4.87;;;1.77;;
6101;SDS011;3081;50.584;7.032;2023-02-28T00:30:54;5.63;;;2.43;;
6101;SDS011;3081;50.584;7.032;2023-02-28T00:33:23;6.03;;;1.90;;
6101;SDS011;3081;50.584;7.032;2023-02-28T00:35:50;5.80;;;2.27;;
6101;SDS011;3081;50.584;7.032;2023-02-28T00:38:17;4.73;;;1.83;;
6101;SDS011;3081;50.584;7.032;2023-02-28T00:40:44;5.33;;;2.07;;
6101;SDS011;3081;50.584;7.032;2023-02-28T00:43:11;6.83;;;1.70;;
6101;SDS011;3081;50.584;7.032;2023-02-28T00:45:38;5.50;;;1.80;;
6101;SDS011;3081;50.584;7.032;2023-02-28T00:48:05;4.33;;;1.60;;
6101;SDS011;3081;50.584;7.032;2023-02-28T00:50:33;4.03;;;1.47;;
6101;SDS011;3081;50.584;7.032;2023-02-28T00:53:00;5.27;;;1.73;;
6101;SDS011;3081;50.584;7.032;2023-02-28T00:55:27;3.93;;;1.50;;
6101;SDS011;3081;50.584;7.032;2023-02-28T00:57:54;4.33;;;1.77;;
6101;SDS011;3081;50.584;7.032;2023-02-28T01:00:21;4.23;;;1.77;;
6101;SDS011;3081;50.584;7.032;2023-02-28T01:02:48;4.60;;;1.57;;
6101;SDS011;3081;50.584;7.032;2023-02-28T01:05:15;4.00;;;1.40;;
6101;SDS011;3081;50.584;7.032;2023-02-28T01:07:43;3.70;;;1.20;;
6101;SDS011;3081;50.584;7.032;2023-02-28T01:10:10;4.40;;;1.60;;
6101;SDS011;3081;50.584;7.032;2023-02-28T01:12:37;3.97;;;1.57;;
6101;SDS011;3081;50.584;7.032;2023-02-28T01:15:04;4.60;;;1.70;;
6101;SDS011;3081;50.584;7.032;2023-02-28T01:17:32;5.07;;;1.50;;
6101;SDS011;3081;50.584;7.032;2023-02-28T01:19:59;4.27;;;1.63;;
6101;SDS011;3081;50.584;7.032;2023-02-28T01:22:26;4.53;;;2.00;;
6101;SDS011;3081;50.584;7.032;2023-02-28T01:24:54;5.40;;;1.90;;
6101;SDS011;3081;50.584;7.032;2023-02-28T01:27:21;9.93;;;3.10;;
6101;SDS011;3081;50.584;7.032;2023-02-28T01:29:48;5.53;;;1.50;;
6101;SDS011;3081;50.584;7.032;2023-02-28T01:32:17;5.50;;;1.70;;
6101;SDS011;3081;50.584;7.032;2023-02-28T01:34:44;7.13;;;2.43;;
6101;SDS011;3081;50.584;7.032;2023-02-28T01:37:10;4.87;;;1.97;;
6101;SDS011;3081;50.584;7.032;2023-02-28T01:39:37;6.10;;;2.27;;
6101;SDS011;3081;50.584;7.032;2023-02-28T01:42:07;5.17;;;2.20;;
6101;SDS011;3081;50.584;7.032;2023-02-28T01:44:58;6.37;;;1.90;;
6101;SDS011;3081;50.584;7.032;2023-02-28T01:47:33;5.17;;;1.87;;
6101;SDS011;3081;50.584;7.032;2023-02-28T01:50:04;6.93;;;1.93;;
6101;SDS011;3081;50.584;7.032;2023-02-28T01:52:35;4.20;;;1.50;;
6101;SDS011;3081;50.584;7.032;2023-02-28T01:55:04;4.13;;;1.80;;
6101;SDS011;3081;50.584;7.032;2023-02-28T01:57:35;4.37;;;1.77;;
6101;SDS011;3081;50.584;7.032;2023-02-28T02:00:06;3.93;;;1.53;;
6101;SDS011;3081;50.584;7.032;2023-02-28T02:02:35;4.03;;;1.70;;
6101;SDS011;3081;50.584;7.032;2023-02-28T02:05:04;5.20;;;2.00;;
6101;SDS011;3081;50.584;7.032;2023-02-28T02:07:33;6.87;;;2.03;;
6101;SDS011;3081;50.584;7.032;2023-02-28T02:10:04;6.13;;;2.27;;
6101;SDS011;3081;50.584;7.032;2023-02-28T02:12:40;4.27;;;2.10;;
6101;SDS011;3081;50.584;7.032;2023-02-28T02:15:20;6.10;;;3.00;;
6101;SDS011;3081;50.584;7.032;2023-02-28T02:17:56;5.63;;;2.57;;
6101;SDS011;3081;50.584;7.032;2023-02-28T02:20:46;6.60;;;2.60;;
6101;SDS011;3081;50.584;7.032;2023-02-28T02:23:33;4.90;;;2.33;;
6101;SDS011;3081;50.584;7.032;2023-02-28T02:26:36;5.10;;;2.37;;
6101;SDS011;3081;50.584;7.032;2023-02-28T02:29:41;4.77;;;2.00;;
6101;SDS011;3081;50.584;7.032;2023-02-28T02:35:15;4.97;;;2.13;;
6101;SDS011;3081;50.584;7.032;2023-02-28T02:37:50;22.87;;;10.90;;
6101;SDS011;3081;50.584;7.032;2023-02-28T02:40:25;8.60;;;3.30;;
6101;SDS011;3081;50.584;7.032;2023-02-28T02:42:58;4.00;;;1.83;;
6101;SDS011;3081;50.584;7.032;2023-02-28T02:45:30;5.70;;;2.80;;
6101;SDS011;3081;50.584;7.032;2023-02-28T02:48:02;4.90;;;2.07;;
6101;SDS011;3081;50.584;7.032;2023-02-28T02:50:33;5.13;;;2.43;;
6101;SDS011;3081;50.584;7.032;2023-02-28T02:53:04;7.40;;;2.33;;
6101;SDS011;3081;50.584;7.032;2023-02-28T02:55:36;5.83;;;2.40;;
6101;SDS011;3081;50.584;7.032;2023-02-28T02:58:07;4.70;;;1.87;;
6101;SDS011;3081;50.584;7.032;2023-02-28T03:00:38;6.40;;;2.60;;
6101;SDS011;3081;50.584;7.032;2023-02-28T03:03:08;6.30;;;3.07;;
6101;SDS011;3081;50.584;7.032;2023-02-28T03:05:41;5.43;;;2.60;;
6101;SDS011;3081;50.584;7.032;2023-02-28T03:08:12;5.57;;;2.80;;
6101;SDS011;3081;50.584;7.032;2023-02-28T03:10:40;5.57;;;2.50;;
6101;SDS011;3081;50.584;7.032;2023-02-28T03:13:23;7.17;;;2.97;;
6101;SDS011;3081;50.584;7.032;2023-02-28T03:16:17;6.23;;;2.43;;
6101;SDS011;3081;50.584;7.032;2023-02-28T03:18:58;8.97;;;1.90;;
6101;SDS011;3081;50.584;7.032;2023-02-28T03:21:35;7.93;;;2.10;;
6101;SDS011;3081;50.584;7.032;2023-02-28T03:24:08;5.50;;;2.17;;
6101;SDS011;3081;50.584;7.032;2023-02-28T03:26:39;4.40;;;2.00;;
6101;SDS011;3081;50.584;7.032;2023-02-28T03:29:12;3.90;;;1.80;;
6101;SDS011;3081;50.584;7.032;2023-02-28T03:31:44;5.43;;;2.40;;
6101;SDS011;3081;50.584;7.032;2023-02-28T03:34:17;5.43;;;2.20;;
6101;SDS011;3081;50.584;7.032;2023-02-28T03:36:51;4.90;;;2.40;;
6101;SDS011;3081;50.584;7.032;2023-02-28T03:39:20;5.03;;;2.10;;
6101;SDS011;3081;50.584;7.032;2023-02-28T03:41:54;5.43;;;2.07;;
6101;SDS011;3081;50.584;7.032;2023-02-28T03:44:27;5.53;;;2.20;;
6101;SDS011;3081;50.584;7.032;2023-02-28T03:46:59;4.70;;;2.13;;
6101;SDS011;3081;50.584;7.032;2023-02-28T03:49:30;6.73;;;2.20;;
6101;SDS011;3081;50.584;7.032;2023-02-28T03:52:02;4.73;;;2.10;;
6101;SDS011;3081;50.584;7.032;2023-02-28T03:54:33;4.33;;;1.80;;
6101;SDS011;3081;50.584;7.032;2023-02-28T03:57:04;9.03;;;1.83;;
6101;SDS011;3081;50.584;7.032;2023-02-28T03:59:39;3.80;;;1.70;;
6101;SDS011;3081;50.584;7.032;2023-02-28T04:02:09;6.57;;;2.20;;
6101;SDS011;3081;50.584;7.032;2023-02-28T04:04:36;9.40;;;2.33;;
6101;SDS011;3081;50.584;7.032;2023-02-28T04:07:05;3.90;;;2.00;;
6101;SDS011;3081;50.584;7.032;2023-02-28T04:09:34;2.97;;;1.73;;
6101;SDS011;3081;50.584;7.032;2023-02-28T04:12:01;4.47;;;2.10;;
6101;SDS011;3081;50.584;7.032;2023-02-28T04:14:28;5.70;;;2.10;;
6101;SDS011;3081;50.584;7.032;2023-02-28T04:16:54;5.13;;;1.87;;
6101;SDS011;3081;50.584;7.032;2023-02-28T04:19:22;6.40;;;2.07;;
6101;SDS011;3081;50.584;7.032;2023-02-28T04:21:50;8.60;;;2.37;;
6101;SDS011;3081;50.584;7.032;2023-02-28T04:24:20;3.90;;;1.80;;
6101;SDS011;3081;50.584;7.032;2023-02-28T04:26:48;4.33;;;2.03;;
6101;SDS011;3081;50.584;7.032;2023-02-28T04:29:18;5.30;;;2.00;;
6101;SDS011;3081;50.584;7.032;2023-02-28T04:31:46;5.00;;;2.43;;
6101;SDS011;3081;50.584;7.032;2023-02-28T04:34:13;4.27;;;2.17;;
6101;SDS011;3081;50.584;7.032;2023-02-28T04:36:40;3.70;;;2.00;;
6101;SDS011;3081;50.584;7.032;2023-02-28T04:39:07;4.10;;;2.17;;
6101;SDS011;3081;50.584;7.032;2023-02-28T04:41:36;3.47;;;1.63;;
6101;SDS011;3081;50.584;7.032;2023-02-28T04:44:03;6.77;;;2.60;;
6101;SDS011;3081;50.584;7.032;2023-02-28T04:46:30;6.93;;;4.13;;
6101;SDS011;3081;50.584;7.032;2023-02-28T04:48:57;4.57;;;2.80;;
6101;SDS011;3081;50.584;7.032;2023-02-28T04:51:24;6.77;;;2.93;;
6101;SDS011;3081;50.584;7.032;2023-02-28T04:53:51;4.80;;;2.60;;
6101;SDS011;3081;50.584;7.032;2023-02-28T04:56:18;4.73;;;2.10;;
6101;SDS011;3081;50.584;7.032;2023-02-28T04:58:48;3.70;;;1.90;;
6101;SDS011;3081;50.584;7.032;2023-02-28T05:01:17;6.23;;;2.30;;
6101;SDS011;3081;50.584;7.032;2023-02-28T05:03:46;4.37;;;2.10;;
6101;SDS011;3081;50.584;7.032;2023-02-28T05:06:13;5.97;;;2.63;;
6101;SDS011;3081;50.584;7.032;2023-02-28T05:08:40;4.20;;;2.43;;
6101;SDS011;3081;50.584;7.032;2023-02-28T05:11:14;10.10;;;2.33;;
6101;SDS011;3081;50.584;7.032;2023-02-28T05:13:43;6.77;;;2.97;;
6101;SDS011;3081;50.584;7.032;2023-02-28T05:16:12;3.30;;;1.90;;
6101;SDS011;3081;50.584;7.032;2023-02-28T05:18:39;4.27;;;2.27;;
6101;SDS011;3081;50.584;7.032;2023-02-28T05:21:12;3.40;;;1.90;;
6101;SDS011;3081;50.584;7.032;2023-02-28T05:23:52;5.07;;;2.60;;
6101;SDS011;3081;50.584;7.032;2023-02-28T05:26:19;4.00;;;2.13;;
6101;SDS011;3081;50.584;7.032;2023-02-28T05:28:47;4.20;;;2.67;;
6101;SDS011;3081;50.584;7.032;2023-02-28T05:31:15;4.20;;;2.10;;
6101;SDS011;3081;50.584;7.032;2023-02-28T05:33:42;4.40;;;2.70;;
6101;SDS011;3081;50.584;7.032;2023-02-28T05:36:09;3.80;;;2.30;;
6101;SDS011;3081;50.584;7.032;2023-02-28T05:38:36;4.20;;;2.40;;
6101;SDS011;3081;50.584;7.032;2023-02-28T05:41:06;4.07;;;2.33;;
6101;SDS011;3081;50.584;7.032;2023-02-28T05:43:34;10.50;;;2.90;;
6101;SDS011;3081;50.584;7.032;2023-02-28T05:46:02;5.50;;;2.40;;
6101;SDS011;3081;50.584;7.032;2023-02-28T05:48:32;4.53;;;2.30;;
6101;SDS011;3081;50.584;7.032;2023-02-28T05:50:59;4.20;;;2.73;;
6101;SDS011;3081;50.584;7.032;2023-02-28T05:53:28;5.00;;;2.93;;
6101;SDS011;3081;50.584;7.032;2023-02-28T05:55:55;5.37;;;2.87;;
6101;SDS011;3081;50.584;7.032;2023-02-28T05:58:22;6.43;;;3.10;;
6101;SDS011;3081;50.584;7.032;2023-02-28T06:00:50;6.53;;;3.70;;
6101;SDS011;3081;50.584;7.032;2023-02-28T06:03:17;6.77;;;3.40;;
6101;SDS011;3081;50.584;7.032;2023-02-28T06:05:46;5.93;;;3.60;;
6101;SDS011;3081;50.584;7.032;2023-02-28T06:08:12;7.33;;;4.10;;
6101;SDS011;3081;50.584;7.032;2023-02-28T06:10:39;13.47;;;4.10;;
6101;SDS011;3081;50.584;7.032;2023-02-28T06:13:06;11.20;;;4.03;;
6101;SDS011;3081;50.584;7.032;2023-02-28T06:15:33;6.73;;;4.50;;
6101;SDS011;3081;50.584;7.032;2023-02-28T06:18:00;4.90;;;3.33;;
6101;SDS011;3081;50.584;7.032;2023-02-28T06:20:27;7.97;;;3.47;;
6101;SDS011;3081;50.584;7.032;2023-02-28T06:22:56;8.67;;;4.23;;
6101;SDS011;3081;50.584;7.032;2023-02-28T06:25:24;6.53;;;3.77;;
6101;SDS011;3081;50.584;7.032;2023-02-28T06:27:51;6.23;;;3.07;;
6101;SDS011;3081;50.584;7.032;2023-02-28T06:30:19;8.73;;;3.20;;
6101;SDS011;3081;50.584;7.032;2023-02-28T06:32:51;6.80;;;3.27;;
6101;SDS011;3081;50.584;7.032;2023-02-28T06:35:19;5.50;;;3.37;;
6101;SDS011;3081;50.584;7.032;2023-02-28T06:37:46;6.70;;;3.47;;
6101;SDS011;3081;50.584;7.032;2023-02-28T06:40:14;4.77;;;3.33;;
6101;SDS011;3081;50.584;7.032;2023-02-28T06:42:42;4.70;;;3.43;;
6101;SDS011;3081;50.584;7.032;2023-02-28T06:45:09;4.40;;;2.77;;
6101;SDS011;3081;50.584;7.032;2023-02-28T06:47:37;7.00;;;3.23;;
6101;SDS011;3081;50.584;7.032;2023-02-28T06:50:06;6.10;;;3.90;;
6101;SDS011;3081;50.584;7.032;2023-02-28T06:52:34;3.43;;;2.50;;
6101;SDS011;3081;50.584;7.032;2023-02-28T06:55:02;7.90;;;4.23;;
6101;SDS011;3081;50.584;7.032;2023-02-28T06:57:31;4.50;;;3.00;;
6101;SDS011;3081;50.584;7.032;2023-02-28T06:59:59;4.33;;;3.10;;
6101;SDS011;3081;50.584;7.032;2023-02-28T07:02:28;4.07;;;2.93;;
6101;SDS011;3081;50.584;7.032;2023-02-28T07:04:55;9.03;;;3.33;;
6101;SDS011;3081;50.584;7.032;2023-02-28T07:07:21;4.33;;;3.10;;
6101;SDS011;3081;50.584;7.032;2023-02-28T07:09:48;5.43;;;2.93;;
6101;SDS011;3081;50.584;7.032;2023-02-28T07:12:15;4.33;;;2.40;;
6101;SDS011;3081;50.584;7.032;2023-02-28T07:14:44;10.40;;;3.90;;
6101;SDS011;3081;50.584;7.032;2023-02-28T07:17:11;5.23;;;2.60;;
6101;SDS011;3081;50.584;7.032;2023-02-28T07:19:38;3.87;;;2.73;;
6101;SDS011;3081;50.584;7.032;2023-02-28T07:22:05;8.30;;;3.30;;
6101;SDS011;3081;50.584;7.032;2023-02-28T07:24:32;6.50;;;3.40;;
6101;SDS011;3081;50.584;7.032;2023-02-28T07:26:59;7.67;;;3.27;;
6101;SDS011;3081;50.584;7.032;2023-02-28T07:29:27;9.57;;;4.10;;
6101;SDS011;3081;50.584;7.032;2023-02-28T07:31:55;5.43;;;3.67;;
6101;SDS011;3081;50.584;7.032;2023-02-28T07:34:22;10.40;;;3.60;;
6101;SDS011;3081;50.584;7.032;2023-02-28T07:36:52;5.00;;;3.00;;
6101;SDS011;3081;50.584;7.032;2023-02-28T07:39:19;6.00;;;3.27;;
6101;SDS011;3081;50.584;7.032;2023-02-28T07:41:46;6.23;;;3.57;;
6101;SDS011;3081;50.584;7.032;2023-02-28T07:44:13;5.07;;;3.10;;
6101;SDS011;3081;50.584;7.032;2023-02-28T07:46:40;14.67;;;3.30;;
6101;SDS011;3081;50.584;7.032;2023-02-28T07:49:08;5.77;;;3.53;;
6101;SDS011;3081;50.584;7.032;2023-02-28T07:51:35;7.50;;;3.10;;
6101;SDS011;3081;50.584;7.032;2023-02-28T07:54:02;4.57;;;2.93;;
6101;SDS011;3081;50.584;7.032;2023-02-28T07:56:29;20.83;;;5.00;;
6101;SDS011;3081;50.584;7.032;2023-02-28T07:58:56;15.63;;;3.70;;
6101;SDS011;3081;50.584;7.032;2023-02-28T08:01:23;6.60;;;3.63;;
6101;SDS011;3081;50.584;7.032;2023-02-28T08:03:51;7.67;;;3.00;;
6101;SDS011;3081;50.584;7.032;2023-02-28T08:06:22;14.37;;;4.80;;
6101;SDS011;3081;50.584;7.032;2023-02-28T08:08:50;12.83;;;5.90;;
6101;SDS011;3081;50.584;7.032;2023-02-28T08:11:17;12.87;;;6.33;;
6101;SDS011;3081;50.584;7.032;2023-02-28T08:13:44;22.27;;;6.00;;
6101;SDS011;3081;50.584;7.032;2023-02-28T08:16:12;14.70;;;6.63;;
6101;SDS011;3081;50.584;7.032;2023-02-28T08:18:42;11.03;;;3.90;;
6101;SDS011;3081;50.584;7.032;2023-02-28T08:21:09;15.73;;;4.23;;
6101;SDS011;3081;50.584;7.032;2023-02-28T08:23:38;11.40;;;3.30;;
6101;SDS011;3081;50.584;7.032;2023-02-28T08:26:05;27.60;;;7.23;;
6101;SDS011;3081;50.584;7.032;2023-02-28T08:28:32;18.13;;;5.80;;
6101;SDS011;3081;50.584;7.032;2023-02-28T08:30:59;8.90;;;3.60;;
6101;SDS011;3081;50.584;7.032;2023-02-28T08:33:27;46.20;;;7.70;;
6101;SDS011;3081;50.584;7.032;2023-02-28T08:35:54;19.20;;;4.97;;
6101;SDS011;3081;50.584;7.032;2023-02-28T08:38:21;14.47;;;4.93;;
6101;SDS011;3081;50.584;7.032;2023-02-28T08:40:50;10.73;;;4.43;;
6101;SDS011;3081;50.584;7.032;2023-02-28T08:43:23;9.67;;;3.40;;
6101;SDS011;3081;50.584;7.032;2023-02-28T08:45:51;13.00;;;5.33;;
6101;SDS011;3081;50.584;7.032;2023-02-28T08:48:18;28.50;;;4.93;;
6101;SDS011;3081;50.584;7.032;2023-02-28T08:50:45;11.60;;;3.23;;
6101;SDS011;3081;50.584;7.032;2023-02-28T08:53:21;12.00;;;3.87;;
6101;SDS011;3081;50.584;7.032;2023-02-28T08:55:56;8.27;;;3.00;;
6101;SDS011;3081;50.584;7.032;2023-02-28T08:58:23;49.67;;;6.90;;
6101;SDS011;3081;50.584;7.032;2023-02-28T09:00:50;15.30;;;4.60;;
6101;SDS011;3081;50.584;7.032;2023-02-28T09:03:17;10.67;;;2.83;;
6101;SDS011;3081;50.584;7.032;2023-02-28T09:05:51;16.80;;;3.53;;
6101;SDS011;3081;50.584;7.032;2023-02-28T09:08:19;8.00;;;2.40;;
6101;SDS011;3081;50.584;7.032;2023-02-28T09:10:46;17.43;;;3.17;;
6101;SDS011;3081;50.584;7.032;2023-02-28T09:13:14;8.00;;;2.67;;
6101;SDS011;3081;50.584;7.032;2023-02-28T09:15:41;8.83;;;3.00;;
6101;SDS011;3081;50.584;7.032;2023-02-28T09:18:08;10.10;;;3.10;;
6101;SDS011;3081;50.584;7.032;2023-02-28T09:20:37;7.00;;;2.23;;
6101;SDS011;3081;50.584;7.032;2023-02-28T09:23:04;10.03;;;2.73;;
6101;SDS011;3081;50.584;7.032;2023-02-28T09:25:31;33.70;;;4.20;;
6101;SDS011;3081;50.584;7.032;2023-02-28T09:27:58;14.23;;;2.83;;
6101;SDS011;3081;50.584;7.032;2023-02-28T09:30:27;12.50;;;2.67;;
6101;SDS011;3081;50.584;7.032;2023-02-28T09:32:54;9.53;;;3.03;;
6101;SDS011;3081;50.584;7.032;2023-02-28T09:35:22;10.20;;;2.60;;
6101;SDS011;3081;50.584;7.032;2023-02-28T09:37:51;11.53;;;2.60;;
6101;SDS011;3081;50.584;7.032;2023-02-28T09:40:18;7.57;;;2.47;;
6101;SDS011;3081;50.584;7.032;2023-02-28T09:42:47;8.80;;;2.50;;
6101;SDS011;3081;50.584;7.032;2023-02-28T09:45:18;9.83;;;3.07;;
6101;SDS011;3081;50.584;7.032;2023-02-28T09:47:51;9.83;;;2.90;;
6101;SDS011;3081;50.584;7.032;2023-02-28T09:50:23;7.37;;;2.47;;
6101;SDS011;3081;50.584;7.032;2023-02-28T09:52:58;8.70;;;2.70;;
6101;SDS011;3081;50.584;7.032;2023-02-28T09:55:28;7.43;;;2.80;;
6101;SDS011;3081;50.584;7.032;2023-02-28T09:57:59;8.93;;;2.80;;
6101;SDS011;3081;50.584;7.032;2023-02-28T10:00:28;9.93;;;3.17;;
6101;SDS011;3081;50.584;7.032;2023-02-28T10:03:10;13.50;;;3.73;;
6101;SDS011;3081;50.584;7.032;2023-02-28T10:05:52;11.87;;;4.90;;
6101;SDS011;3081;50.584;7.032;2023-02-28T10:08:26;12.60;;;4.20;;
6101;SDS011;3081;50.584;7.032;2023-02-28T10:10:57;32.53;;;9.60;;
6101;SDS011;3081;50.584;7.032;2023-02-28T10:13:27;13.40;;;4.67;;
6101;SDS011;3081;50.584;7.032;2023-02-28T10:16:01;15.70;;;5.83;;
6101;SDS011;3081;50.584;7.032;2023-02-28T10:18:35;31.67;;;6.67;;
6101;SDS011;3081;50.584;7.032;2023-02-28T10:21:10;15.37;;;6.13;;
6101;SDS011;3081;50.584;7.032;2023-02-28T10:23:45;9.80;;;3.47;;
6101;SDS011;3081;50.584;7.032;2023-02-28T10:26:14;15.80;;;3.87;;
6101;SDS011;3081;50.584;7.032;2023-02-28T10:28:43;9.80;;;2.50;;
6101;SDS011;3081;50.584;7.032;2023-02-28T10:31:11;9.80;;;3.80;;
6101;SDS011;3081;50.584;7.032;2023-02-28T10:33:43;16.07;;;4.00;;
6101;SDS011;3081;50.584;7.032;2023-02-28T10:36:12;13.10;;;4.90;;
6101;SDS011;3081;50.584;7.032;2023-02-28T10:38:42;10.43;;;4.10;;
6101;SDS011;3081;50.584;7.032;2023-02-28T10:41:11;15.10;;;4.03;;
6101;SDS011;3081;50.584;7.032;2023-02-28T10:43:40;30.23;;;6.33;;
6101;SDS011;3081;50.584;7.032;2023-02-28T10:46:12;10.77;;;4.43;;
6101;SDS011;3081;50.584;7.032;2023-02-28T10:48:57;11.80;;;3.80;;
6101;SDS011;3081;50.584;7.032;2023-02-28T10:51:33;13.67;;;4.60;;
6101;SDS011;3081;50.584;7.032;2023-02-28T10:54:02;11.60;;;4.23;;
6101;SDS011;3081;50.584;7.032;2023-02-28T10:56:30;13.50;;;4.73;;
6101;SDS011;3081;50.584;7.032;2023-02-28T10:58:58;14.17;;;6.93;;
6101;SDS011;3081;50.584;7.032;2023-02-28T11:01:34;8.93;;;3.97;;
6101;SDS011;3081;50.584;7.032;2023-02-28T11:04:04;14.63;;;3.30;;
6101;SDS011;3081;50.584;7.032;2023-02-28T11:06:44;9.70;;;2.93;;
6101;SDS011;3081;50.584;7.032;2023-02-28T11:09:16;15.40;;;3.20;;
6101;SDS011;3081;50.584;7.032;2023-02-28T11:11:46;17.70;;;3.60;;
6101;SDS011;3081;50.584;7.032;2023-02-28T11:14:18;15.73;;;3.50;;
6101;SDS011;3081;50.584;7.032;2023-02-28T11:16:47;10.93;;;3.83;;
6101;SDS011;3081;50.584;7.032;2023-02-28T11:19:18;11.13;;;4.13;;
6101;SDS011;3081;50.584;7.032;2023-02-28T11:21:51;14.23;;;5.50;;
6101;SDS011;3081;50.584;7.032;2023-02-28T11:24:22;11.47;;;4.07;;
6101;SDS011;3081;50.584;7.032;2023-02-28T11:26:52;20.30;;;5.57;;
6101;SDS011;3081;50.584;7.032;2023-02-28T11:29:21;11.80;;;3.53;;
6101;SDS011;3081;50.584;7.032;2023-02-28T11:32:03;14.07;;;3.40;;
6101;SDS011;3081;50.584;7.032;2023-02-28T11:34:44;17.67;;;3.20;;
6101;SDS011;3081;50.584;7.032;2023-02-28T11:37:13;9.20;;;3.17;;
6101;SDS011;3081;50.584;7.032;2023-02-28T11:39:42;12.67;;;4.03;;
6101;SDS011;3081;50.584;7.032;2023-02-28T11:45:19;7.60;;;2.67;;
6101;SDS011;3081;50.584;7.032;2023-02-28T11:47:54;8.33;;;3.30;;
6101;SDS011;3081;50.584;7.032;2023-02-28T11:50:38;12.63;;;3.47;;
6101;SDS011;3081;50.584;7.032;2023-02-28T11:53:14;35.23;;;6.00;;
6101;SDS011;3081;50.584;7.032;2023-02-28T11:55:48;9.73;;;2.83;;
6101;SDS011;3081;50.584;7.032;2023-02-28T11:58:31;9.50;;;2.67;;
6101;SDS011;3081;50.584;7.032;2023-02-28T12:01:17;10.95;;;3.50;;
6101;SDS011;3081;50.584;7.032;2023-02-28T12:03:56;10.27;;;3.77;;
6101;SDS011;3081;50.584;7.032;2023-02-28T12:06:32;10.70;;;2.97;;
6101;SDS011;3081;50.584;7.032;2023-02-28T12:09:10;16.83;;;4.07;;
6101;SDS011;3081;50.584;7.032;2023-02-28T12:11:56;9.60;;;3.00;;
6101;SDS011;3081;50.584;7.032;2023-02-28T12:17:43;14.27;;;4.23;;
6101;SDS011;3081;50.584;7.032;2023-02-28T12:20:23;17.33;;;8.20;;
6101;SDS011;3081;50.584;7.032;2023-02-28T12:23:00;14.00;;;6.03;;
6101;SDS011;3081;50.584;7.032;2023-02-28T12:25:56;16.80;;;4.20;;
6101;SDS011;3081;50.584;7.032;2023-02-28T12:28:30;18.50;;;6.30;;
6101;SDS011;3081;50.584;7.032;2023-02-28T12:31:01;10.97;;;3.23;;
6101;SDS011;3081;50.584;7.032;2023-02-28T12:33:32;9.20;;;2.70;;
6101;SDS011;3081;50.584;7.032;2023-02-28T12:36:03;11.73;;;3.63;;
6101;SDS011;3081;50.584;7.032;2023-02-28T12:38:39;9.17;;;2.90;;
6101;SDS011;3081;50.584;7.032;2023-02-28T12:41:10;22.27;;;3.87;;
6101;SDS011;3081;50.584;7.032;2023-02-28T12:43:42;10.33;;;3.07;;
6101;SDS011;3081;50.584;7.032;2023-02-28T12:46:12;10.07;;;3.13;;
6101;SDS011;3081;50.584;7.032;2023-02-28T12:48:44;16.43;;;6.30;;
6101;SDS011;3081;50.584;7.032;2023-02-28T12:51:15;14.60;;;4.73;;
6101;SDS011;3081;50.584;7.032;2023-02-28T12:53:52;10.97;;;4.00;;
6101;SDS011;3081;50.584;7.032;2023-02-28T12:56:29;9.70;;;3.50;;
6101;SDS011;3081;50.584;7.032;2023-02-28T12:59:01;17.73;;;6.83;;
6101;SDS011;3081;50.584;7.032;2023-02-28T13:01:42;25.30;;;7.43;;
6101;SDS011;3081;50.584;7.032;2023-02-28T13:04:29;12.97;;;6.17;;
6101;SDS011;3081;50.584;7.032;2023-02-28T13:07:20;9.93;;;4.17;;
6101;SDS011;3081;50.584;7.032;2023-02-28T13:09:59;17.60;;;7.17;;
6101;SDS011;3081;50.584;7.032;2023-02-28T13:12:29;50.20;;;10.33;;
6101;SDS011;3081;50.584;7.032;2023-02-28T13:15:01;19.10;;;8.20;;
6101;SDS011;3081;50.584;7.032;2023-02-28T13:17:37;10.90;;;5.10;;
6101;SDS011;3081;50.584;7.032;2023-02-28T13:20:13;12.03;;;4.23;;
6101;SDS011;3081;50.584;7.032;2023-02-28T13:22:42;21.17;;;5.60;;
6101;SDS011;3081;50.584;7.032;2023-02-28T13:31:30;12.80;;;4.73;;
6101;SDS011;3081;50.584;7.032;2023-02-28T13:34:05;18.60;;;4.80;;
6101;SDS011;3081;50.584;7.032;2023-02-28T13:36:40;11.20;;;4.13;;
6101;SDS011;3081;50.584;7.032;2023-02-28T13:45:21;19.27;;;4.73;;
6101;SDS011;3081;50.584;7.032;2023-02-28T13:47:54;10.80;;;4.30;;
6101;SDS011;3081;50.584;7.032;2023-02-28T13:50:27;13.37;;;3.53;;
6101;SDS011;3081;50.584;7.032;2023-02-28T13:56:10;29.50;;;13.20;;
6101;SDS011;3081;50.584;7.032;2023-02-28T13:58:54;12.03;;;6.03;;
6101;SDS011;3081;50.584;7.032;2023-02-28T14:01:35;13.27;;;4.20;;
6101;SDS011;3081;50.584;7.032;2023-02-28T14:07:18;18.20;;;3.30;;
6101;SDS011;3081;50.584;7.032;2023-02-28T14:09:50;11.63;;;5.10;;
6101;SDS011;3081;50.584;7.032;2023-02-28T14:15:28;9.97;;;4.07;;
6101;SDS011;3081;50.584;7.032;2023-02-28T14:18:13;11.20;;;4.17;;
6101;SDS011;3081;50.584;7.032;2023-02-28T14:20:44;9.83;;;3.50;;
6101;SDS011;3081;50.584;7.032;2023-02-28T14:23:15;9.47;;;3.00;;
6101;SDS011;3081;50.584;7.032;2023-02-28T14:25:53;11.30;;;3.23;;
6101;SDS011;3081;50.584;7.032;2023-02-28T14:28:35;9.63;;;3.60;;
6101;SDS011;3081;50.584;7.032;2023-02-28T14:31:16;11.30;;;5.07;;
6101;SDS011;3081;50.584;7.032;2023-02-28T14:33:57;16.10;;;7.60;;
6101;SDS011;3081;50.584;7.032;2023-02-28T14:36:31;9.43;;;3.80;;
6101;SDS011;3081;50.584;7.032;2023-02-28T14:39:03;38.93;;;21.00;;
6101;SDS011;3081;50.584;7.032;2023-02-28T14:41:33;49.03;;;27.73;;
6101;SDS011;3081;50.584;7.032;2023-02-28T14:44:03;48.40;;;26.97;;
6101;SDS011;3081;50.584;7.032;2023-02-28T14:46:41;31.40;;;17.00;;
6101;SDS011;3081;50.584;7.032;2023-02-28T14:49:13;14.67;;;6.40;;
6101;SDS011;3081;50.584;7.032;2023-02-28T14:51:44;13.90;;;6.37;;
6101;SDS011;3081;50.584;7.032;2023-02-28T14:54:13;20.03;;;9.00;;
6101;SDS011;3081;50.584;7.032;2023-02-28T14:56:42;15.53;;;7.33;;
6101;SDS011;3081;50.584;7.032;2023-02-28T14:59:23;16.20;;;7.50;;
6101;SDS011;3081;50.584;7.032;2023-02-28T15:01:54;13.33;;;5.00;;
6101;SDS011;3081;50.584;7.032;2023-02-28T15:04:51;38.40;;;16.37;;
6101;SDS011;3081;50.584;7.032;2023-02-28T15:07:20;21.10;;;12.40;;
6101;SDS011;3081;50.584;7.032;2023-02-28T15:10:06;12.20;;;6.70;;
6101;SDS011;3081;50.584;7.032;2023-02-28T15:12:37;15.20;;;8.20;;
6101;SDS011;3081;50.584;7.032;2023-02-28T15:15:06;12.03;;;5.77;;
6101;SDS011;3081;50.584;7.032;2023-02-28T15:17:43;13.00;;;5.63;;
6101;SDS011;3081;50.584;7.032;2023-02-28T15:20:12;13.13;;;4.97;;
6101;SDS011;3081;50.584;7.032;2023-02-28T15:22:41;10.60;;;4.17;;
6101;SDS011;3081;50.584;7.032;2023-02-28T15:25:09;9.80;;;4.00;;
6101;SDS011;3081;50.584;7.032;2023-02-28T15:27:44;14.23;;;8.40;;
6101;SDS011;3081;50.584;7.032;2023-02-28T15:30:16;22.43;;;10.67;;
6101;SDS011;3081;50.584;7.032;2023-02-28T15:32:48;18.47;;;10.80;;
6101;SDS011;3081;50.584;7.032;2023-02-28T15:35:31;16.93;;;7.17;;
6101;SDS011;3081;50.584;7.032;2023-02-28T15:38:00;16.30;;;7.90;;
6101;SDS011;3081;50.584;7.032;2023-02-28T15:40:31;20.30;;;9.07;;
6101;SDS011;3081;50.584;7.032;2023-02-28T15:43:05;18.57;;;9.70;;
6101;SDS011;3081;50.584;7.032;2023-02-28T15:45:41;13.20;;;6.00;;
6101;SDS011;3081;50.584;7.032;2023-02-28T15:48:17;24.20;;;10.20;;
6101;SDS011;3081;50.584;7.032;2023-02-28T15:50:47;23.50;;;9.97;;
6101;SDS011;3081;50.584;7.032;2023-02-28T15:53:17;17.30;;;7.30;;
6101;SDS011;3081;50.584;7.032;2023-02-28T15:55:51;21.90;;;9.70;;
6101;SDS011;3081;50.584;7.032;2023-02-28T15:58:20;24.27;;;9.67;;
6101;SDS011;3081;50.584;7.032;2023-02-28T16:00:59;21.10;;;7.70;;
6101;SDS011;3081;50.584;7.032;2023-02-28T16:03:44;13.10;;;6.20;;
6101;SDS011;3081;50.584;7.032;2023-02-28T16:06:31;12.17;;;6.07;;